Messwerte Leknes

Temperatur

Temperatur
°C
1594188000 8.00 8.00 10
1594191600 9.00 9.00 10
1594195200 10.00 10.00 11
1594198800 11.00 11.00 11
1594202400 12.00 12.00 11
1594206000 13.00 13.00 12
1594209600 14.00 14.00 13
1594213200 15.00 15.00 13
1594216800 16.00 16.00 12
1594220400 17.00 17.00 12
1594224000 18.00 18.00 12
1594227600 19.00 19.00 12
1594231200 20.00 20.00 12
1594234800 21.00 21.00 11
1594238400 22.00 22.00 11
1594242000 23.00 23.00
1594245600 0.00 0.00
1594249200 1.00 1.00
1594252800 2.00 2.00
1594256400 3.00 3.00
1594260000 4.00 4.00 10
1594263600 5.00 5.00 11
1594267200 6.00 6.00
1594270800 7.00 7.00 11

Aktuellste Messwerte

Wettercharakter
Wetter: wechselnd bewölkt
Temperatur
11 °C
Feuchtigkeit
85 %
Wind
20 km/hWindrichtung: Süd
Luftdruck
1006 hPa
Messzeit: 9. Juli 2020, 7.00Datenquelle: METAR

Weitere Messstationen in der Nähe

Messstation Temperatur Entfernung
Svolvær 11 °C 45 km
Stokmarknes - 75 km
Røst - 95 km
Bodoe 10 °C 103 km
Evenes 11 °C 132 km
Andoya 10 °C 163 km
Moirana 9 °C 200 km

Wind

Windrichtung Böen Mittelwind
° km/h km/h
1594188000 8.00 7.00 - 8.00 170° 10
1594191600 9.00 8.00 - 9.00 140° 10
1594195200 10.00 9.00 - 10.00 170° 15
1594198800 11.00 10.00 - 11.00 170° 20
1594202400 12.00 11.00 - 12.00 160° 20
1594206000 13.00 12.00 - 13.00 160° 15
1594209600 14.00 13.00 - 14.00 160° 20
1594213200 15.00 14.00 - 15.00 170° 20
1594216800 16.00 15.00 - 16.00 170° 20
1594220400 17.00 16.00 - 17.00 170° 20
1594224000 18.00 17.00 - 18.00 170° 20
1594227600 19.00 18.00 - 19.00 160° 20
1594231200 20.00 19.00 - 20.00 160° 20
1594234800 21.00 20.00 - 21.00 180° 15
1594238400 22.00 21.00 - 22.00 180° 20
1594242000 23.00 22.00 - 23.00
1594245600 0.00 23.00 - 0.00
1594249200 1.00 0.00 - 1.00
1594252800 2.00 1.00 - 2.00
1594256400 3.00 2.00 - 3.00
1594260000 4.00 3.00 - 4.00 180° 10
1594263600 5.00 4.00 - 5.00 180° 15
1594267200 6.00 5.00 - 6.00
1594270800 7.00 6.00 - 7.00 180° 20

Ihre Wetterstation

Fehlt Ihre Wetterstation auf unserem Portal?

Schreiben Sie an network@meteonews.ch

Klima

Wann ist es am wärmsten? Wann regnet es am wenigsten? Unsere Klimadaten geben Auskunft.